createdAt,value
2022-12-26T00:01:14.668Z,15.37
2022-12-26T00:03:43.001Z,14.60
2022-12-26T00:06:16.120Z,13.80
2022-12-26T00:08:44.379Z,14.90
2022-12-26T00:11:13.505Z,14.83
2022-12-26T00:13:42.360Z,14.33
2022-12-26T00:16:12.228Z,13.83
2022-12-26T00:18:40.908Z,14.43
2022-12-26T00:21:10.690Z,14.13
2022-12-26T00:23:41.206Z,14.77
2022-12-26T00:26:11.229Z,13.33
2022-12-26T00:28:39.935Z,13.00
2022-12-26T00:31:10.664Z,12.03
2022-12-26T00:33:39.952Z,11.87
2022-12-26T00:36:11.096Z,10.27
2022-12-26T00:38:41.903Z,9.83
2022-12-26T00:41:11.212Z,9.80
2022-12-26T00:43:39.647Z,10.97
2022-12-26T00:46:09.074Z,9.67
2022-12-26T00:48:37.415Z,10.43
2022-12-26T00:51:06.499Z,10.33
2022-12-26T00:53:35.203Z,11.03
2022-12-26T00:56:05.376Z,11.00
2022-12-26T00:58:33.840Z,9.77
2022-12-26T01:01:08.308Z,9.83
2022-12-26T01:03:36.720Z,9.27
2022-12-26T01:06:06.134Z,8.40
2022-12-26T01:08:34.469Z,7.80
2022-12-26T01:11:07.660Z,7.93
2022-12-26T01:13:37.127Z,7.87
2022-12-26T01:16:07.052Z,7.67
2022-12-26T01:18:36.357Z,7.67
2022-12-26T01:21:06.870Z,7.47
2022-12-26T01:23:35.138Z,7.37
2022-12-26T01:26:18.773Z,6.93
2022-12-26T01:28:49.833Z,7.00
2022-12-26T01:31:18.669Z,7.13
2022-12-26T01:33:47.402Z,7.10
2022-12-26T01:36:16.516Z,7.07
2022-12-26T01:38:45.160Z,7.20
2022-12-26T01:41:20.949Z,7.40
2022-12-26T01:43:59.462Z,7.40
2022-12-26T01:46:33.774Z,6.50
2022-12-26T01:49:08.043Z,6.40
2022-12-26T01:51:41.163Z,6.50
2022-12-26T01:54:40.352Z,6.40
2022-12-26T01:57:05.949Z,6.47
2022-12-26T01:59:38.031Z,6.13
2022-12-26T02:02:06.900Z,6.10
2022-12-26T02:04:59.742Z,6.20
2022-12-26T02:07:28.485Z,6.00
2022-12-26T02:09:57.115Z,6.27
2022-12-26T02:12:35.551Z,6.93
2022-12-26T02:15:10.538Z,6.33
2022-12-26T02:17:39.721Z,6.20
2022-12-26T02:20:20.304Z,6.67
2022-12-26T02:23:26.171Z,5.83
2022-12-26T02:26:26.965Z,6.13
2022-12-26T02:29:28.973Z,5.93
2022-12-26T02:32:09.507Z,5.73
2022-12-26T02:34:51.070Z,5.70
2022-12-26T02:37:32.454Z,5.63
2022-12-26T02:40:38.816Z,5.37
2022-12-26T02:43:17.298Z,5.23
2022-12-26T02:46:11.593Z,5.37
2022-12-26T02:48:48.356Z,5.83
2022-12-26T02:51:44.887Z,5.33
2022-12-26T02:54:44.419Z,5.27
2022-12-26T02:57:38.051Z,5.67
2022-12-26T03:00:30.378Z,7.03
2022-12-26T03:03:21.776Z,8.73
2022-12-26T03:06:14.380Z,10.17
2022-12-26T03:09:05.675Z,12.13
2022-12-26T03:11:56.876Z,13.83
2022-12-26T03:14:28.488Z,13.40
2022-12-26T03:17:30.425Z,14.33
2022-12-26T03:20:02.976Z,15.07
2022-12-26T03:22:40.226Z,14.50
2022-12-26T03:25:28.894Z,15.07
2022-12-26T03:27:57.564Z,15.03
2022-12-26T03:30:44.085Z,13.90
2022-12-26T03:33:26.485Z,14.47
2022-12-26T03:35:55.187Z,13.47
2022-12-26T03:38:31.760Z,12.50
2022-12-26T03:41:25.109Z,11.77
2022-12-26T03:44:25.673Z,10.97
2022-12-26T03:47:22.721Z,11.30
2022-12-26T03:50:12.598Z,10.53
2022-12-26T03:53:03.820Z,8.60
2022-12-26T03:56:00.566Z,7.43
2022-12-26T03:58:51.188Z,7.17
2022-12-26T04:01:52.128Z,6.70
2022-12-26T04:04:40.900Z,6.57
2022-12-26T04:07:29.947Z,5.87
2022-12-26T04:10:20.467Z,5.63
2022-12-26T04:13:09.704Z,5.13
2022-12-26T04:16:02.996Z,5.03
2022-12-26T04:19:04.912Z,5.27
2022-12-26T04:21:57.927Z,5.70
2022-12-26T04:24:49.207Z,6.00
2022-12-26T04:27:36.623Z,6.40
2022-12-26T04:30:25.049Z,6.40
2022-12-26T04:33:14.648Z,6.00
2022-12-26T04:36:06.944Z,6.60
2022-12-26T04:38:58.163Z,6.33
2022-12-26T04:41:45.914Z,5.70
2022-12-26T04:44:15.671Z,5.13
2022-12-26T04:46:47.694Z,5.80
2022-12-26T04:49:35.756Z,5.47
2022-12-26T04:52:09.035Z,5.10
2022-12-26T04:54:37.588Z,4.87
2022-12-26T04:57:06.558Z,5.20
2022-12-26T04:59:35.060Z,5.00
2022-12-26T05:02:22.189Z,5.37
2022-12-26T05:05:07.999Z,5.07
2022-12-26T05:07:55.973Z,5.07
2022-12-26T05:10:27.656Z,5.20
2022-12-26T05:12:56.893Z,5.23
2022-12-26T05:15:25.435Z,4.90
2022-12-26T05:18:14.872Z,5.27
2022-12-26T05:21:00.318Z,4.90
2022-12-26T05:23:47.521Z,4.70
2022-12-26T05:26:36.420Z,4.27
2022-12-26T05:29:05.608Z,5.33
2022-12-26T05:31:36.665Z,4.43
2022-12-26T05:34:06.297Z,4.60
2022-12-26T05:36:39.839Z,4.60
2022-12-26T05:39:09.199Z,4.53
2022-12-26T05:41:38.337Z,4.47
2022-12-26T05:44:07.323Z,4.10
2022-12-26T05:46:36.291Z,4.00
2022-12-26T05:49:06.999Z,3.97
2022-12-26T05:51:35.774Z,4.20
2022-12-26T05:54:04.492Z,3.97
2022-12-26T05:56:32.834Z,3.90
2022-12-26T05:59:02.541Z,3.60
2022-12-26T06:01:31.758Z,3.97
2022-12-26T06:04:01.339Z,3.53
2022-12-26T06:06:31.241Z,3.30
2022-12-26T06:08:59.628Z,3.83
2022-12-26T06:11:28.327Z,3.50
2022-12-26T06:13:57.130Z,4.00
2022-12-26T06:16:25.614Z,3.60
2022-12-26T06:18:55.680Z,3.40
2022-12-26T06:21:24.356Z,3.47
2022-12-26T06:23:54.163Z,3.40
2022-12-26T06:26:22.576Z,3.50
2022-12-26T06:28:50.887Z,3.20
2022-12-26T06:31:21.466Z,3.57
2022-12-26T06:33:51.708Z,3.57
2022-12-26T06:36:22.079Z,4.00
2022-12-26T06:38:51.103Z,3.80
2022-12-26T06:41:22.709Z,4.10
2022-12-26T06:43:51.317Z,4.20
2022-12-26T06:46:21.459Z,5.20
2022-12-26T06:48:50.205Z,6.20
2022-12-26T06:51:20.533Z,6.67
2022-12-26T06:53:49.191Z,8.13
2022-12-26T06:56:19.284Z,8.77
2022-12-26T06:58:49.483Z,9.20
2022-12-26T07:01:20.261Z,8.47
2022-12-26T07:03:51.861Z,9.37
2022-12-26T07:06:25.341Z,9.47
2022-12-26T07:08:54.854Z,10.03
2022-12-26T07:11:25.558Z,10.43
2022-12-26T07:13:56.040Z,11.50
2022-12-26T07:16:25.214Z,12.73
2022-12-26T07:18:55.036Z,14.80
2022-12-26T07:21:24.123Z,15.87
2022-12-26T07:23:53.206Z,17.30
2022-12-26T07:26:21.943Z,17.70
2022-12-26T07:28:50.237Z,18.07
2022-12-26T07:31:20.747Z,24.77
2022-12-26T07:33:49.794Z,29.13
2022-12-26T07:36:18.603Z,32.77
2022-12-26T07:38:46.966Z,35.17
2022-12-26T07:41:33.062Z,41.60
2022-12-26T07:44:01.378Z,44.37
2022-12-26T07:46:31.364Z,42.47
2022-12-26T07:48:59.874Z,35.90
2022-12-26T07:51:28.880Z,30.17
2022-12-26T07:53:57.456Z,24.17
2022-12-26T07:56:26.273Z,21.27
2022-12-26T07:58:54.570Z,19.30
2022-12-26T08:01:22.957Z,17.33
2022-12-26T08:03:53.209Z,17.07
2022-12-26T08:06:21.868Z,16.70
2022-12-26T08:08:51.784Z,16.10
2022-12-26T08:11:23.764Z,16.40
2022-12-26T08:13:53.066Z,16.50
2022-12-26T08:16:23.599Z,15.70
2022-12-26T08:18:53.392Z,14.20
2022-12-26T08:21:21.707Z,14.27
2022-12-26T08:23:50.097Z,14.57
2022-12-26T08:26:23.224Z,14.03
2022-12-26T08:28:52.773Z,14.17
2022-12-26T08:31:22.250Z,15.80
2022-12-26T08:33:52.456Z,16.07
2022-12-26T08:36:20.774Z,14.90
2022-12-26T08:38:49.090Z,14.00
2022-12-26T08:41:18.525Z,12.23
2022-12-26T08:46:38.770Z,10.17
2022-12-26T08:49:08.464Z,9.40
2022-12-26T08:51:36.916Z,9.33
2022-12-26T08:54:05.739Z,8.40
2022-12-26T08:56:34.184Z,8.70
2022-12-26T08:59:02.509Z,6.53
2022-12-26T09:01:32.762Z,11.00
2022-12-26T09:04:02.619Z,12.90
2022-12-26T09:06:34.198Z,14.33
2022-12-26T09:09:02.918Z,15.07
2022-12-26T09:11:31.767Z,15.67
2022-12-26T09:14:01.559Z,16.00
2022-12-26T09:16:37.452Z,16.67
2022-12-26T09:19:07.547Z,15.83
2022-12-26T09:21:37.253Z,15.33
2022-12-26T09:24:07.967Z,14.87
2022-12-26T09:26:36.523Z,14.60
2022-12-26T09:29:05.229Z,14.17
2022-12-26T09:31:35.840Z,13.80
2022-12-26T09:34:05.624Z,14.33
2022-12-26T09:36:39.073Z,14.90
2022-12-26T09:39:08.226Z,15.17
2022-12-26T09:41:59.631Z,15.33
2022-12-26T09:44:41.818Z,16.00
2022-12-26T09:47:23.153Z,14.93
2022-12-26T09:49:56.662Z,14.73
2022-12-26T09:52:44.639Z,14.80
2022-12-26T09:55:28.600Z,13.63
2022-12-26T09:58:01.685Z,16.63
2022-12-26T10:00:34.239Z,19.23
2022-12-26T10:03:03.292Z,17.23
2022-12-26T10:05:37.542Z,17.27
2022-12-26T10:08:19.444Z,17.80
2022-12-26T10:10:55.969Z,16.90
2022-12-26T10:13:34.651Z,13.30
2022-12-26T10:16:10.075Z,10.20
2022-12-26T10:18:50.343Z,7.80
2022-12-26T10:21:32.982Z,6.40
2022-12-26T10:24:08.353Z,5.83
2022-12-26T10:26:39.957Z,4.73
2022-12-26T10:29:17.375Z,5.13
2022-12-26T10:31:49.461Z,5.37
2022-12-26T10:34:21.283Z,5.00
2022-12-26T10:36:52.064Z,5.33
2022-12-26T10:39:27.584Z,5.77
2022-12-26T10:42:00.811Z,5.50
2022-12-26T10:44:29.563Z,5.63
2022-12-26T10:47:20.944Z,9.60
2022-12-26T10:49:49.977Z,7.83
2022-12-26T10:52:20.102Z,6.90
2022-12-26T10:55:28.033Z,5.87
2022-12-26T10:57:45.227Z,5.87
2022-12-26T11:00:20.866Z,6.10
2022-12-26T11:03:04.488Z,5.77
2022-12-26T11:08:26.785Z,6.03
2022-12-26T11:11:06.624Z,5.67
2022-12-26T11:13:39.039Z,6.47
2022-12-26T11:16:09.377Z,5.30
2022-12-26T11:18:40.427Z,5.37
2022-12-26T11:21:14.958Z,5.63
2022-12-26T11:23:43.223Z,5.83
2022-12-26T11:26:23.155Z,6.20
2022-12-26T11:29:07.756Z,5.73
2022-12-26T11:31:37.962Z,6.87
2022-12-26T11:34:10.175Z,6.40
2022-12-26T11:36:41.631Z,5.80
2022-12-26T11:39:23.999Z,6.40
2022-12-26T11:41:55.336Z,5.43
2022-12-26T11:44:27.600Z,6.57
2022-12-26T11:47:00.275Z,6.28
2022-12-26T11:49:33.419Z,6.72
2022-12-26T11:52:04.163Z,6.05
2022-12-26T11:54:36.072Z,6.07
2022-12-26T11:57:20.398Z,5.93
2022-12-26T11:59:49.590Z,6.40
2022-12-26T12:02:28.600Z,6.07
2022-12-26T12:05:01.475Z,5.82
2022-12-26T12:07:49.339Z,5.68
2022-12-26T12:10:47.893Z,6.32
2022-12-26T12:13:28.485Z,5.70
2022-12-26T12:16:03.996Z,6.63
2022-12-26T12:18:41.919Z,5.47
2022-12-26T12:21:19.500Z,5.78
2022-12-26T12:24:11.586Z,5.10
2022-12-26T12:26:54.445Z,5.63
2022-12-26T12:29:39.932Z,4.97
2022-12-26T12:32:14.340Z,5.27
2022-12-26T12:35:02.412Z,5.40
2022-12-26T12:37:38.906Z,5.60
2022-12-26T12:40:24.294Z,4.90
2022-12-26T12:43:01.153Z,5.93
2022-12-26T12:45:34.247Z,5.37
2022-12-26T12:48:38.488Z,5.00
2022-12-26T12:51:18.672Z,5.33
2022-12-26T12:54:22.260Z,4.20
2022-12-26T12:56:59.353Z,4.23
2022-12-26T12:59:35.598Z,4.10
2022-12-26T13:02:20.518Z,4.20
2022-12-26T13:04:53.258Z,4.53
2022-12-26T13:07:27.242Z,4.37
2022-12-26T13:09:59.941Z,5.47
2022-12-26T13:12:31.190Z,5.10
2022-12-26T13:15:02.719Z,4.70
2022-12-26T13:17:37.478Z,4.70
2022-12-26T13:20:13.586Z,5.27
2022-12-26T13:23:03.554Z,6.00
2022-12-26T13:25:44.165Z,5.60
2022-12-26T13:28:19.552Z,4.93
2022-12-26T13:30:55.215Z,4.73
2022-12-26T13:33:25.139Z,4.70
2022-12-26T13:35:56.555Z,5.10
2022-12-26T13:38:25.838Z,4.73
2022-12-26T13:41:19.863Z,4.43
2022-12-26T13:44:01.729Z,5.13
2022-12-26T13:46:56.667Z,4.63
2022-12-26T13:49:36.213Z,5.10
2022-12-26T13:52:33.738Z,5.87
2022-12-26T13:55:42.207Z,6.03
2022-12-26T13:58:26.236Z,5.67
2022-12-26T14:01:00.199Z,5.53
2022-12-26T14:03:49.399Z,5.80
2022-12-26T14:06:45.339Z,5.47
2022-12-26T14:09:34.832Z,5.50
2022-12-26T14:12:27.832Z,5.10
2022-12-26T14:15:08.957Z,5.00
2022-12-26T14:17:48.692Z,4.80
2022-12-26T14:20:37.309Z,4.60
2022-12-26T14:23:21.943Z,5.10
2022-12-26T14:26:06.806Z,4.60
2022-12-26T14:28:51.611Z,4.97
2022-12-26T14:31:28.196Z,5.00
2022-12-26T14:34:06.918Z,4.70
2022-12-26T14:36:48.374Z,4.77
2022-12-26T14:39:29.912Z,5.40
2022-12-26T14:42:36.583Z,5.83
2022-12-26T14:45:13.233Z,5.70
2022-12-26T14:47:44.969Z,5.60
2022-12-26T14:50:36.339Z,6.60
2022-12-26T14:53:34.076Z,6.33
2022-12-26T14:56:05.053Z,7.20
2022-12-26T14:58:42.297Z,7.20
2022-12-26T15:01:48.045Z,6.90
2022-12-26T15:04:46.316Z,7.67
2022-12-26T15:07:53.100Z,7.37
2022-12-26T15:10:52.509Z,7.40
2022-12-26T15:13:53.501Z,7.93
2022-12-26T15:16:39.295Z,7.17
2022-12-26T15:19:44.148Z,7.60
2022-12-26T15:22:35.490Z,6.90
2022-12-26T15:25:38.704Z,6.70
2022-12-26T15:28:36.990Z,7.07
2022-12-26T15:31:39.389Z,6.53
2022-12-26T15:34:28.621Z,6.80
2022-12-26T15:37:02.365Z,7.67
2022-12-26T15:39:38.745Z,8.40
2022-12-26T15:42:25.111Z,7.57
2022-12-26T15:45:03.957Z,7.70
2022-12-26T15:47:39.139Z,7.67
2022-12-26T15:50:28.331Z,7.10
2022-12-26T15:53:09.650Z,7.37
2022-12-26T15:55:56.028Z,7.13
2022-12-26T15:58:47.662Z,7.33
2022-12-26T16:01:37.153Z,7.03
2022-12-26T16:04:10.334Z,6.93
2022-12-26T16:06:51.957Z,7.57
2022-12-26T16:09:40.205Z,6.30
2022-12-26T16:12:26.138Z,6.33
2022-12-26T16:15:16.208Z,6.90
2022-12-26T16:17:46.661Z,6.97
2022-12-26T16:20:42.479Z,7.33
2022-12-26T16:23:15.176Z,7.67
2022-12-26T16:25:48.494Z,8.40
2022-12-26T16:28:17.814Z,9.30
2022-12-26T16:30:46.332Z,9.50
2022-12-26T16:33:16.195Z,9.20
2022-12-26T16:35:46.269Z,11.03
2022-12-26T16:38:21.013Z,11.40
2022-12-26T16:40:51.056Z,11.77
2022-12-26T16:43:27.722Z,12.30
2022-12-26T16:46:00.573Z,13.10
2022-12-26T16:48:32.060Z,16.70
2022-12-26T16:51:03.922Z,16.27
2022-12-26T16:53:45.439Z,14.73
2022-12-26T16:56:26.689Z,12.00
2022-12-26T16:59:04.093Z,9.10
2022-12-26T17:01:33.967Z,8.30
2022-12-26T17:04:05.578Z,7.43
2022-12-26T17:06:38.238Z,7.93
2022-12-26T17:09:10.932Z,8.30
2022-12-26T17:11:46.379Z,7.37
2022-12-26T17:14:21.138Z,6.80
2022-12-26T17:16:58.845Z,8.00
2022-12-26T17:19:30.142Z,7.17
2022-12-26T17:22:29.175Z,9.43
2022-12-26T17:25:20.554Z,10.17
2022-12-26T17:28:09.885Z,9.17
2022-12-26T17:30:39.509Z,8.13
2022-12-26T17:33:13.612Z,9.57
2022-12-26T17:36:38.151Z,11.63
2022-12-26T17:38:33.554Z,11.90
2022-12-26T17:41:05.036Z,10.57
2022-12-26T17:43:35.425Z,13.27
2022-12-26T17:46:05.370Z,13.97
2022-12-26T17:48:34.253Z,13.80
2022-12-26T17:51:05.318Z,13.50
2022-12-26T17:53:37.493Z,12.70
2022-12-26T17:56:08.271Z,12.80
2022-12-26T17:58:36.764Z,14.20
2022-12-26T18:01:05.520Z,15.77
2022-12-26T18:03:33.930Z,19.80
2022-12-26T18:06:02.437Z,22.00
2022-12-26T18:08:35.143Z,20.07
2022-12-26T18:11:04.997Z,23.30
2022-12-26T18:13:33.388Z,35.67
2022-12-26T18:16:02.202Z,35.70
2022-12-26T18:18:35.799Z,31.63
2022-12-26T18:21:05.275Z,27.90
2022-12-26T18:23:34.999Z,24.13
2022-12-26T18:26:07.099Z,29.63
2022-12-26T18:28:36.416Z,42.90
2022-12-26T18:31:04.863Z,80.13
2022-12-26T18:33:33.130Z,67.10
2022-12-26T18:36:07.258Z,51.47
2022-12-26T18:38:37.369Z,41.93
2022-12-26T18:41:05.807Z,34.60
2022-12-26T18:43:34.013Z,28.40
2022-12-26T18:46:02.388Z,23.63
2022-12-26T18:48:30.706Z,22.10
2022-12-26T18:50:59.195Z,20.07
2022-12-26T18:53:27.485Z,19.57
2022-12-26T18:55:57.133Z,18.37
2022-12-26T18:58:25.422Z,18.23
2022-12-26T19:00:53.775Z,18.27
2022-12-26T19:03:22.135Z,17.70
2022-12-26T19:05:50.451Z,16.87
2022-12-26T19:08:18.710Z,15.67
2022-12-26T19:10:47.505Z,14.67
2022-12-26T19:13:17.521Z,15.80
2022-12-26T19:15:49.331Z,17.00
2022-12-26T19:18:17.623Z,16.40
2022-12-26T19:20:46.280Z,17.80
2022-12-26T19:23:14.577Z,17.50
2022-12-26T19:25:42.797Z,14.67
2022-12-26T19:28:11.137Z,12.90
2022-12-26T19:30:40.781Z,12.27
2022-12-26T19:33:09.343Z,11.70
2022-12-26T19:35:37.895Z,14.07
2022-12-26T19:38:06.172Z,16.70
2022-12-26T19:40:34.453Z,17.03
2022-12-26T19:43:02.783Z,17.93
2022-12-26T19:45:31.305Z,17.87
2022-12-26T19:48:01.126Z,19.50
2022-12-26T19:50:29.472Z,20.40
2022-12-26T19:52:57.763Z,21.27
2022-12-26T19:55:26.166Z,20.10
2022-12-26T19:57:54.427Z,18.23
2022-12-26T20:00:23.471Z,17.80
2022-12-26T20:02:51.857Z,17.07
2022-12-26T20:05:21.888Z,17.90
2022-12-26T20:07:50.220Z,19.73
2022-12-26T20:10:19.231Z,17.17
2022-12-26T20:12:47.507Z,21.07
2022-12-26T20:15:15.972Z,22.40
2022-12-26T20:17:44.300Z,21.70
2022-12-26T20:20:12.660Z,20.00
2022-12-26T20:22:42.259Z,18.23
2022-12-26T20:25:10.878Z,17.20
2022-12-26T20:27:40.800Z,15.57
2022-12-26T20:30:10.621Z,14.37
2022-12-26T20:32:39.251Z,12.80
2022-12-26T20:35:08.501Z,11.63
2022-12-26T20:37:36.799Z,11.13
2022-12-26T20:40:07.615Z,10.80
2022-12-26T20:42:35.866Z,10.07
2022-12-26T20:45:04.899Z,10.03
2022-12-26T20:47:33.182Z,9.40
2022-12-26T20:50:01.436Z,9.80
2022-12-26T20:52:29.732Z,9.17
2022-12-26T20:54:58.062Z,9.10
2022-12-26T20:57:27.851Z,9.40
2022-12-26T20:59:56.089Z,9.10
2022-12-26T21:02:24.514Z,8.73
2022-12-26T21:04:53.731Z,8.10
2022-12-26T21:07:22.043Z,8.70
2022-12-26T21:09:50.375Z,9.27
2022-12-26T21:12:18.753Z,8.63
2022-12-26T21:14:48.432Z,8.93
2022-12-26T21:17:18.832Z,8.83
2022-12-26T21:19:47.408Z,8.50
2022-12-26T21:22:15.983Z,8.80
2022-12-26T21:24:44.318Z,8.93
2022-12-26T21:27:12.605Z,8.50
2022-12-26T21:29:41.004Z,9.17
2022-12-26T21:32:10.711Z,8.17
2022-12-26T21:34:39.064Z,8.77
2022-12-26T21:37:24.907Z,8.43
2022-12-26T21:39:53.152Z,8.43
2022-12-26T21:42:21.444Z,8.30
2022-12-26T21:44:49.719Z,8.17
2022-12-26T21:47:19.668Z,8.43
2022-12-26T21:49:48.067Z,8.70
2022-12-26T21:52:16.334Z,8.40
2022-12-26T21:55:02.189Z,8.30
2022-12-26T21:57:31.670Z,8.97
2022-12-26T22:00:00.891Z,8.67
2022-12-26T22:02:50.305Z,8.23
2022-12-26T22:05:20.811Z,8.17
2022-12-26T22:07:52.817Z,8.47
2022-12-26T22:10:38.877Z,8.33
2022-12-26T22:13:08.070Z,7.80
2022-12-26T22:15:53.821Z,7.67
2022-12-26T22:18:23.564Z,7.30
2022-12-26T22:20:51.851Z,7.53
2022-12-26T22:23:20.176Z,7.10
2022-12-26T22:25:54.903Z,7.23
2022-12-26T22:28:23.843Z,6.70
2022-12-26T22:30:52.905Z,6.53
2022-12-26T22:33:22.581Z,6.77
2022-12-26T22:35:50.957Z,6.00
2022-12-26T22:38:19.628Z,6.50
2022-12-26T22:40:56.293Z,6.70
2022-12-26T22:43:25.787Z,6.33
2022-12-26T22:45:54.520Z,6.47
2022-12-26T22:48:25.277Z,7.00
2022-12-26T22:50:56.197Z,6.93
2022-12-26T22:53:25.468Z,7.00
2022-12-26T22:55:58.203Z,6.53
2022-12-26T22:58:26.773Z,6.00
2022-12-26T23:00:55.319Z,6.53
2022-12-26T23:03:26.032Z,6.40
2022-12-26T23:05:55.663Z,5.63
2022-12-26T23:08:25.864Z,5.70
2022-12-26T23:10:55.680Z,5.73
2022-12-26T23:13:24.971Z,5.60
2022-12-26T23:15:57.093Z,6.43
2022-12-26T23:18:51.093Z,6.27
2022-12-26T23:21:45.481Z,6.07
2022-12-26T23:24:17.493Z,5.73
2022-12-26T23:26:48.562Z,5.83
2022-12-26T23:29:38.352Z,5.80
2022-12-26T23:32:07.880Z,6.27
2022-12-26T23:34:38.132Z,6.70
2022-12-26T23:37:06.429Z,6.47
2022-12-26T23:39:34.691Z,6.10
2022-12-26T23:42:03.014Z,5.80
2022-12-26T23:44:32.357Z,6.03
2022-12-26T23:47:00.775Z,5.97
2022-12-26T23:49:29.148Z,7.23
2022-12-26T23:51:58.919Z,7.07
2022-12-26T23:54:27.423Z,7.00
2022-12-26T23:56:55.823Z,6.97
2022-12-26T23:59:24.203Z,7.23
